createdAt,value
2023-02-12T00:01:40.712Z,18.20
2023-02-12T00:04:09.113Z,20.00
2023-02-12T00:06:39.282Z,19.30
2023-02-12T00:09:07.919Z,19.10
2023-02-12T00:11:36.364Z,20.20
2023-02-12T00:14:05.724Z,21.30
2023-02-12T00:16:34.156Z,20.20
2023-02-12T00:19:02.606Z,20.30
2023-02-12T00:21:31.070Z,20.50
2023-02-12T00:23:59.412Z,20.50
2023-02-12T00:26:28.500Z,19.60
2023-02-12T00:28:57.102Z,18.70
2023-02-12T00:31:29.455Z,19.40
2023-02-12T00:33:59.424Z,20.80
2023-02-12T00:36:29.488Z,20.00
2023-02-12T00:38:58.194Z,16.80
2023-02-12T00:41:30.248Z,19.00
2023-02-12T00:43:58.811Z,19.10
2023-02-12T00:46:27.888Z,21.40
2023-02-12T00:48:56.399Z,19.60
2023-02-12T00:51:24.899Z,20.60
2023-02-12T00:53:53.127Z,18.70
2023-02-12T00:56:21.512Z,20.10
2023-02-12T00:58:51.093Z,20.50
2023-02-12T01:01:22.702Z,19.70
2023-02-12T01:03:51.279Z,20.20
2023-02-12T01:06:21.230Z,20.10
2023-02-12T01:08:53.439Z,20.00
2023-02-12T01:11:22.054Z,19.70
2023-02-12T01:13:50.741Z,18.40
2023-02-12T01:16:22.186Z,19.80
2023-02-12T01:18:55.810Z,21.30
2023-02-12T01:21:28.129Z,19.90
2023-02-12T01:23:57.726Z,19.70
2023-02-12T01:26:27.414Z,19.50
2023-02-12T01:29:01.412Z,22.30
2023-02-12T01:31:33.352Z,21.00
2023-02-12T01:34:05.979Z,22.70
2023-02-12T01:36:37.536Z,20.40
2023-02-12T01:39:11.944Z,21.20
2023-02-12T01:41:45.372Z,20.90
2023-02-12T01:44:36.957Z,21.30
2023-02-12T01:47:06.557Z,19.10
2023-02-12T01:49:40.707Z,19.90
2023-02-12T01:52:27.552Z,20.40
2023-02-12T01:55:00.613Z,20.50
2023-02-12T01:57:32.514Z,21.30
2023-02-12T02:00:03.784Z,20.90
2023-02-12T02:02:47.628Z,20.10
2023-02-12T02:05:24.087Z,19.30
2023-02-12T02:07:53.900Z,19.80
2023-02-12T02:10:22.447Z,19.90
2023-02-12T02:13:09.542Z,21.60
2023-02-12T02:15:42.145Z,20.40
2023-02-12T02:18:27.297Z,20.30
2023-02-12T02:21:40.639Z,19.80
2023-02-12T02:24:46.114Z,19.90
2023-02-12T02:27:33.727Z,22.10
2023-02-12T02:30:35.873Z,21.40
2023-02-12T02:33:33.490Z,21.60
2023-02-12T02:36:10.760Z,19.90
2023-02-12T02:38:55.933Z,19.40
2023-02-12T02:41:47.779Z,20.70
2023-02-12T02:44:26.917Z,20.20
2023-02-12T02:47:00.679Z,18.10
2023-02-12T02:49:38.375Z,18.80
2023-02-12T02:52:20.906Z,17.90
2023-02-12T02:54:54.880Z,19.60
2023-02-12T02:57:23.128Z,19.50
2023-02-12T02:59:58.474Z,21.20
2023-02-12T03:02:35.964Z,20.80
2023-02-12T03:05:17.835Z,20.00
2023-02-12T03:07:53.919Z,20.80
2023-02-12T03:10:32.767Z,18.90
2023-02-12T03:13:11.353Z,22.10
2023-02-12T03:15:44.631Z,18.80
2023-02-12T03:18:36.566Z,20.80
2023-02-12T03:21:11.598Z,19.40
2023-02-12T03:23:48.330Z,19.60
2023-02-12T03:26:22.436Z,21.00
2023-02-12T03:28:53.212Z,21.20
2023-02-12T03:31:30.660Z,18.60
2023-02-12T03:34:25.092Z,19.40
2023-02-12T03:37:02.495Z,21.20
2023-02-12T03:39:35.485Z,22.90
2023-02-12T03:42:19.102Z,21.00
2023-02-12T03:44:49.520Z,24.20
2023-02-12T03:47:20.903Z,23.80
2023-02-12T03:50:01.523Z,32.90
2023-02-12T03:52:31.084Z,34.20
2023-02-12T03:54:59.527Z,32.00
2023-02-12T03:57:34.216Z,30.20
2023-02-12T04:00:07.501Z,30.10
2023-02-12T04:02:43.641Z,30.90
2023-02-12T04:05:22.132Z,30.40
2023-02-12T04:07:52.640Z,36.50
2023-02-12T04:10:30.252Z,27.00
2023-02-12T04:13:19.655Z,31.00
2023-02-12T04:16:11.965Z,27.80
2023-02-12T04:18:46.826Z,30.80
2023-02-12T04:21:21.329Z,29.40
2023-02-12T04:24:35.702Z,28.60
2023-02-12T04:27:19.198Z,17.90
2023-02-12T04:29:50.160Z,27.60
2023-02-12T04:32:25.109Z,26.10
2023-02-12T04:35:04.510Z,28.30
2023-02-12T04:37:43.778Z,30.70
2023-02-12T04:40:18.290Z,31.90
2023-02-12T04:42:49.729Z,28.60
2023-02-12T04:45:26.690Z,28.50
2023-02-12T04:47:55.851Z,26.60
2023-02-12T04:50:24.317Z,25.20
2023-02-12T04:52:55.988Z,28.40
2023-02-12T04:55:24.196Z,27.40
2023-02-12T04:57:52.304Z,31.00
2023-02-12T05:00:20.964Z,28.00
2023-02-12T05:02:49.088Z,27.50
2023-02-12T05:05:18.571Z,30.50
2023-02-12T05:07:50.055Z,28.00
2023-02-12T05:10:18.277Z,32.40
2023-02-12T05:12:46.879Z,29.90
2023-02-12T05:15:15.297Z,29.30
2023-02-12T05:17:44.988Z,31.40
2023-02-12T05:20:14.088Z,32.20
2023-02-12T05:22:42.297Z,29.80
2023-02-12T05:25:10.483Z,30.70
2023-02-12T05:27:38.977Z,30.10
2023-02-12T05:30:09.588Z,29.30
2023-02-12T05:32:37.999Z,30.10
2023-02-12T05:35:07.036Z,30.00
2023-02-12T05:37:37.041Z,29.10
2023-02-12T05:40:09.266Z,26.90
2023-02-12T05:42:37.804Z,30.90
2023-02-12T05:45:06.820Z,30.40
2023-02-12T05:47:38.580Z,29.00
2023-02-12T05:50:07.603Z,28.80
2023-02-12T05:52:38.083Z,28.70
2023-02-12T05:55:07.126Z,29.10
2023-02-12T05:57:35.452Z,28.50
2023-02-12T06:00:06.548Z,28.10
2023-02-12T06:02:42.863Z,26.90
2023-02-12T06:05:11.460Z,29.80
2023-02-12T06:07:40.033Z,25.40
2023-02-12T06:10:12.250Z,24.30
2023-02-12T06:12:40.781Z,27.60
2023-02-12T06:15:09.238Z,27.30
2023-02-12T06:17:37.614Z,27.30
2023-02-12T06:20:06.524Z,27.10
2023-02-12T06:22:34.869Z,26.60
2023-02-12T06:25:05.626Z,27.60
2023-02-12T06:27:33.752Z,37.40
2023-02-12T06:30:02.260Z,36.30
2023-02-12T06:32:30.936Z,28.70
2023-02-12T06:34:59.271Z,35.70
2023-02-12T06:37:30.495Z,35.90
2023-02-12T06:39:58.987Z,31.10
2023-02-12T06:42:27.384Z,32.00
2023-02-12T06:44:55.818Z,29.20
2023-02-12T06:47:27.788Z,29.60
2023-02-12T06:49:56.131Z,31.00
2023-02-12T06:52:30.787Z,30.70
2023-02-12T06:54:59.069Z,41.10
2023-02-12T06:57:29.868Z,35.00
2023-02-12T06:59:58.420Z,32.20
2023-02-12T07:02:26.871Z,30.30
2023-02-12T07:04:55.709Z,28.10
2023-02-12T07:07:24.248Z,31.00
2023-02-12T07:09:52.555Z,32.30
2023-02-12T07:12:20.841Z,34.40
2023-02-12T07:14:49.171Z,31.90
2023-02-12T07:17:17.341Z,31.30
2023-02-12T07:19:50.954Z,33.90
2023-02-12T07:22:19.132Z,32.30
2023-02-12T07:24:47.582Z,34.40
2023-02-12T07:27:16.018Z,30.80
2023-02-12T07:29:44.651Z,29.80
2023-02-12T07:32:13.420Z,32.80
2023-02-12T07:34:41.704Z,28.20
2023-02-12T07:37:10.405Z,28.50
2023-02-12T07:39:38.990Z,32.40
2023-02-12T07:42:09.058Z,31.30
2023-02-12T07:44:37.547Z,30.50
2023-02-12T07:47:06.194Z,28.60
2023-02-12T07:49:34.572Z,29.20
2023-02-12T07:52:03.408Z,29.40
2023-02-12T07:54:31.911Z,27.60
2023-02-12T07:57:00.715Z,30.80
2023-02-12T07:59:28.910Z,32.00
2023-02-12T08:01:58.478Z,30.90
2023-02-12T08:04:27.138Z,31.10
2023-02-12T08:06:56.636Z,28.80
2023-02-12T08:09:27.748Z,30.60
2023-02-12T08:11:55.931Z,29.90
2023-02-12T08:14:24.332Z,27.80
2023-02-12T08:16:53.096Z,29.80
2023-02-12T08:19:26.550Z,30.80
2023-02-12T08:21:56.706Z,30.20
2023-02-12T08:24:28.474Z,32.70
2023-02-12T08:26:56.893Z,32.30
2023-02-12T08:29:30.695Z,34.20
2023-02-12T08:34:32.683Z,31.80
2023-02-12T08:37:01.835Z,31.40
2023-02-12T08:39:30.507Z,28.10
2023-02-12T08:42:00.396Z,27.80
2023-02-12T08:44:29.718Z,32.10
2023-02-12T08:46:58.643Z,35.00
2023-02-12T08:49:29.346Z,29.30
2023-02-12T08:51:59.444Z,31.30
2023-02-12T08:54:29.264Z,32.90
2023-02-12T08:57:00.293Z,31.50
2023-02-12T08:59:28.862Z,32.50
2023-02-12T09:02:00.671Z,31.70
2023-02-12T09:04:29.688Z,30.90
2023-02-12T09:07:00.549Z,32.00
2023-02-12T09:09:28.914Z,33.40
2023-02-12T09:11:59.590Z,29.90
2023-02-12T09:14:27.727Z,29.60
2023-02-12T09:16:57.448Z,34.60
2023-02-12T09:19:28.002Z,30.60
2023-02-12T09:21:57.125Z,29.70
2023-02-12T09:24:27.631Z,29.40
2023-02-12T09:26:56.844Z,27.20
2023-02-12T09:29:25.246Z,28.30
2023-02-12T09:31:53.895Z,29.10
2023-02-12T09:34:22.476Z,28.40
2023-02-12T09:36:51.054Z,27.80
2023-02-12T09:39:20.882Z,29.10
2023-02-12T09:42:36.683Z,30.90
2023-02-12T09:45:24.306Z,29.90
2023-02-12T09:48:22.780Z,29.30
2023-02-12T09:50:59.964Z,28.90
2023-02-12T09:53:35.102Z,31.20
2023-02-12T09:56:03.788Z,29.50
2023-02-12T09:58:50.334Z,28.70
2023-02-12T10:01:23.267Z,28.40
2023-02-12T10:03:52.946Z,29.60
2023-02-12T10:06:27.375Z,28.20
2023-02-12T10:08:58.624Z,28.50
2023-02-12T10:11:59.038Z,28.30
2023-02-12T10:14:41.931Z,28.90
2023-02-12T10:17:31.900Z,30.80
2023-02-12T10:20:28.570Z,30.50
2023-02-12T10:23:46.477Z,30.40
2023-02-12T10:26:26.092Z,29.20
2023-02-12T10:28:59.260Z,28.30
2023-02-12T10:31:45.044Z,26.60
2023-02-12T10:34:21.251Z,26.90
2023-02-12T10:36:58.214Z,28.20
2023-02-12T10:39:32.024Z,26.40
2023-02-12T10:42:21.584Z,27.20
2023-02-12T10:44:53.410Z,25.90
2023-02-12T10:47:24.131Z,26.90
2023-02-12T10:50:02.778Z,27.60
2023-02-12T10:52:55.375Z,26.30
2023-02-12T10:55:27.642Z,25.90
2023-02-12T10:58:03.126Z,26.00
2023-02-12T11:00:43.472Z,26.10
2023-02-12T11:03:23.334Z,23.50
2023-02-12T11:05:57.253Z,23.50
2023-02-12T11:08:36.241Z,25.50
2023-02-12T11:11:34.216Z,25.50
2023-02-12T11:14:16.669Z,27.00
2023-02-12T11:16:53.771Z,26.30
2023-02-12T11:19:28.024Z,26.00
2023-02-12T11:22:18.911Z,25.20
2023-02-12T11:25:02.116Z,25.50
2023-02-12T11:27:32.708Z,24.20
2023-02-12T11:30:33.016Z,25.00
2023-02-12T11:33:41.428Z,25.80
2023-02-12T11:36:43.994Z,24.40
2023-02-12T11:39:36.603Z,24.80
2023-02-12T11:42:29.213Z,26.10
2023-02-12T11:44:59.991Z,24.90
2023-02-12T11:47:36.294Z,25.60
2023-02-12T11:50:26.669Z,25.20
2023-02-12T11:53:04.710Z,25.40
2023-02-12T11:55:36.824Z,24.30
2023-02-12T11:58:26.812Z,25.40
2023-02-12T12:01:19.562Z,24.50
2023-02-12T12:04:14.215Z,24.90
2023-02-12T12:07:04.008Z,25.70
2023-02-12T12:09:49.668Z,25.40
2023-02-12T12:12:58.661Z,24.40
2023-02-12T12:15:57.385Z,25.70
2023-02-12T12:18:54.541Z,26.00
2023-02-12T12:21:34.665Z,24.80
2023-02-12T12:24:29.491Z,27.40
2023-02-12T12:27:24.596Z,28.40
2023-02-12T12:30:06.823Z,28.40
2023-02-12T12:32:38.979Z,26.20
2023-02-12T12:35:13.890Z,26.60
2023-02-12T12:37:55.022Z,26.40
2023-02-12T12:40:48.571Z,27.10
2023-02-12T12:43:30.351Z,27.30
2023-02-12T12:46:07.322Z,26.30
2023-02-12T12:49:28.684Z,25.30
2023-02-12T12:52:17.037Z,24.60
2023-02-12T12:55:21.574Z,23.40
2023-02-12T12:57:56.958Z,25.70
2023-02-12T13:00:52.793Z,24.70
2023-02-12T13:03:38.894Z,26.10
2023-02-12T13:06:28.240Z,25.60
2023-02-12T13:09:21.609Z,24.10
2023-02-12T13:12:15.426Z,23.20
2023-02-12T13:15:03.363Z,22.10
2023-02-12T13:17:54.834Z,22.00
2023-02-12T13:20:40.799Z,20.50
2023-02-12T13:23:23.163Z,21.60
2023-02-12T13:26:36.030Z,21.00
2023-02-12T13:29:19.614Z,21.80
2023-02-12T13:31:57.709Z,18.20
2023-02-12T13:34:29.850Z,18.40
2023-02-12T13:37:01.765Z,18.50
2023-02-12T13:39:35.675Z,19.00
2023-02-12T13:42:19.917Z,18.70
2023-02-12T13:45:00.905Z,18.60
2023-02-12T13:47:51.515Z,18.00
2023-02-12T13:50:47.382Z,18.10
2023-02-12T13:53:32.551Z,18.10
2023-02-12T13:56:16.184Z,19.60
2023-02-12T13:58:51.277Z,18.80
2023-02-12T14:01:46.795Z,19.80
2023-02-12T14:04:21.544Z,19.60
2023-02-12T14:07:15.588Z,19.10
2023-02-12T14:12:35.248Z,19.10
2023-02-12T14:15:11.426Z,19.70
2023-02-12T14:17:52.153Z,17.80
2023-02-12T14:20:28.832Z,21.60
2023-02-12T14:23:01.767Z,19.80
2023-02-12T14:25:45.867Z,18.90
2023-02-12T14:28:56.349Z,20.80
2023-02-12T14:31:27.877Z,19.40
2023-02-12T14:34:06.126Z,19.20
2023-02-12T14:36:43.926Z,17.80
2023-02-12T14:39:45.685Z,18.10
2023-02-12T14:42:16.698Z,17.90
2023-02-12T14:44:48.073Z,19.20
2023-02-12T14:47:36.486Z,17.80
2023-02-12T14:50:23.043Z,18.10
2023-02-12T14:53:06.620Z,18.00
2023-02-12T14:55:36.065Z,17.90
2023-02-12T14:58:25.071Z,18.90
2023-02-12T15:00:56.829Z,18.30
2023-02-12T15:03:43.860Z,18.00
2023-02-12T15:06:34.321Z,20.10
2023-02-12T15:09:10.245Z,18.80
2023-02-12T15:12:00.501Z,18.10
2023-02-12T15:14:35.123Z,18.30
2023-02-12T15:17:22.364Z,18.60
2023-02-12T15:20:09.564Z,18.80
2023-02-12T15:22:42.097Z,17.60
2023-02-12T15:25:39.025Z,18.40
2023-02-12T15:28:21.045Z,18.30
2023-02-12T15:31:00.367Z,18.50
2023-02-12T15:33:35.272Z,18.90
2023-02-12T15:36:04.612Z,18.20
2023-02-12T15:38:41.668Z,20.70
2023-02-12T15:41:43.916Z,21.20
2023-02-12T15:44:30.918Z,21.20
2023-02-12T15:47:12.202Z,25.00
2023-02-12T15:49:42.170Z,25.00
2023-02-12T15:52:19.157Z,22.20
2023-02-12T15:54:48.661Z,21.20
2023-02-12T15:57:24.103Z,22.90
2023-02-12T16:00:10.222Z,24.70
2023-02-12T16:02:44.453Z,24.20
2023-02-12T16:05:16.999Z,23.90
2023-02-12T16:07:46.860Z,23.80
2023-02-12T16:10:20.851Z,22.50
2023-02-12T16:12:51.269Z,20.70
2023-02-12T16:15:34.524Z,21.40
2023-02-12T16:18:05.499Z,23.90
2023-02-12T16:20:35.037Z,22.60
2023-02-12T16:23:07.452Z,21.70
2023-02-12T16:25:35.812Z,20.70
2023-02-12T16:28:15.833Z,21.20
2023-02-12T16:30:48.508Z,22.00
2023-02-12T16:33:57.892Z,16.20
2023-02-12T16:36:26.067Z,22.10
2023-02-12T16:39:08.584Z,24.40
2023-02-12T16:41:57.600Z,23.40
2023-02-12T16:44:27.581Z,23.30
2023-02-12T16:46:59.069Z,25.90
2023-02-12T16:49:27.757Z,30.30
2023-02-12T16:52:20.877Z,39.90
2023-02-12T16:54:49.171Z,50.10
2023-02-12T16:57:17.432Z,43.60
2023-02-12T16:59:48.895Z,30.40
2023-02-12T17:02:17.423Z,28.80
2023-02-12T17:04:45.944Z,27.00
2023-02-12T17:07:28.548Z,27.90
2023-02-12T17:09:57.556Z,27.50
2023-02-12T17:12:26.670Z,23.50
2023-02-12T17:14:56.078Z,23.60
2023-02-12T17:17:24.316Z,24.60
2023-02-12T17:19:53.413Z,23.90
2023-02-12T17:22:24.591Z,25.90
2023-02-12T17:24:53.527Z,24.60
2023-02-12T17:27:22.122Z,25.60
2023-02-12T17:29:50.558Z,25.90
2023-02-12T17:32:21.538Z,28.80
2023-02-12T17:34:52.280Z,25.90
2023-02-12T17:37:22.446Z,27.00
2023-02-12T17:39:50.830Z,28.60
2023-02-12T17:42:21.440Z,27.20
2023-02-12T17:44:50.023Z,27.90
2023-02-12T17:47:18.248Z,39.10
2023-02-12T17:49:49.352Z,35.30
2023-02-12T17:52:17.740Z,34.00
2023-02-12T17:54:46.766Z,33.90
2023-02-12T17:57:15.119Z,31.40
2023-02-12T17:59:43.592Z,32.00
2023-02-12T18:02:12.494Z,30.70
2023-02-12T18:04:44.036Z,38.60
2023-02-12T18:07:12.650Z,40.10
2023-02-12T18:09:41.239Z,35.50
2023-02-12T18:12:09.895Z,44.10
2023-02-12T18:14:38.731Z,39.70
2023-02-12T18:17:09.482Z,40.60
2023-02-12T18:19:37.932Z,39.70
2023-02-12T18:22:06.235Z,39.70
2023-02-12T18:24:35.219Z,39.90
2023-02-12T18:27:03.531Z,43.60
2023-02-12T18:29:31.995Z,43.70
2023-02-12T18:32:00.866Z,46.40
2023-02-12T18:34:29.091Z,46.90
2023-02-12T18:36:57.872Z,48.40
2023-02-12T18:39:26.248Z,48.10
2023-02-12T18:41:54.413Z,46.60
2023-02-12T18:44:23.068Z,48.30
2023-02-12T18:46:51.494Z,43.80
2023-02-12T18:49:19.794Z,41.00
2023-02-12T18:51:48.026Z,42.10
2023-02-12T18:54:16.209Z,41.90
2023-02-12T18:56:48.340Z,38.80
2023-02-12T18:59:21.212Z,37.00
2023-02-12T19:01:51.215Z,34.90
2023-02-12T19:04:22.034Z,35.20
2023-02-12T19:06:54.713Z,36.10
2023-02-12T19:09:24.938Z,36.40
2023-02-12T19:11:55.970Z,37.00
2023-02-12T19:14:27.512Z,38.20
2023-02-12T19:16:56.018Z,38.90
2023-02-12T19:19:25.000Z,40.30
2023-02-12T19:21:53.521Z,42.60
2023-02-12T19:24:22.001Z,42.90
2023-02-12T19:26:54.005Z,43.20
2023-02-12T19:29:22.728Z,44.60
2023-02-12T19:31:51.141Z,41.00
2023-02-12T19:34:22.330Z,42.10
2023-02-12T19:36:51.105Z,43.70
2023-02-12T19:39:23.820Z,42.90
2023-02-12T19:41:52.406Z,43.10
2023-02-12T19:44:24.027Z,42.40
2023-02-12T19:46:53.413Z,38.30
2023-02-12T19:49:24.247Z,40.70
2023-02-12T19:51:52.909Z,41.10
2023-02-12T19:54:22.620Z,42.70
2023-02-12T19:56:52.914Z,43.10
2023-02-12T19:59:23.988Z,50.20
2023-02-12T20:01:52.881Z,49.20
2023-02-12T20:04:23.771Z,40.20
2023-02-12T20:06:52.844Z,45.00
2023-02-12T20:09:22.946Z,45.90
2023-02-12T20:11:51.945Z,41.00
2023-02-12T20:14:22.959Z,40.70
2023-02-12T20:16:54.790Z,39.20
2023-02-12T20:19:27.175Z,39.30
2023-02-12T20:21:57.674Z,34.50
2023-02-12T20:24:30.996Z,39.50
2023-02-12T20:27:01.375Z,42.30
2023-02-12T20:29:30.126Z,40.80
2023-02-12T20:31:58.640Z,43.20
2023-02-12T20:34:27.326Z,39.00
2023-02-12T20:36:55.958Z,39.40
2023-02-12T20:39:24.566Z,40.20
2023-02-12T20:41:53.108Z,41.80
2023-02-12T20:44:22.685Z,44.70
2023-02-12T20:46:56.455Z,42.30
2023-02-12T20:49:26.896Z,53.40
2023-02-12T20:51:55.538Z,52.10
2023-02-12T20:54:24.064Z,49.60
2023-02-12T20:56:52.443Z,49.20
2023-02-12T20:59:20.860Z,54.40
2023-02-12T21:01:49.278Z,59.20
2023-02-12T21:04:19.281Z,52.40
2023-02-12T21:06:48.698Z,51.90
2023-02-12T21:09:19.181Z,48.70
2023-02-12T21:11:48.452Z,48.00
2023-02-12T21:14:23.244Z,48.00
2023-02-12T21:16:55.014Z,46.80
2023-02-12T21:19:23.989Z,48.50
2023-02-12T21:21:52.977Z,41.70
2023-02-12T21:24:26.558Z,46.50
2023-02-12T21:26:56.764Z,49.00
2023-02-12T21:29:27.611Z,43.60
2023-02-12T21:31:56.176Z,37.80
2023-02-12T21:34:24.597Z,36.20
2023-02-12T21:36:55.455Z,37.80
2023-02-12T21:39:27.785Z,36.50
2023-02-12T21:42:03.197Z,35.70
2023-02-12T21:44:35.566Z,34.40
2023-02-12T21:47:04.826Z,36.20
2023-02-12T21:49:33.047Z,33.60
2023-02-12T21:52:03.637Z,34.10
2023-02-12T21:54:32.312Z,37.50
2023-02-12T21:57:00.848Z,34.70
2023-02-12T21:59:31.933Z,36.70
2023-02-12T22:02:00.919Z,28.40
2023-02-12T22:04:29.529Z,26.50
2023-02-12T22:06:59.786Z,31.10
2023-02-12T22:09:28.110Z,31.90
2023-02-12T22:11:56.399Z,32.70
2023-02-12T22:14:24.544Z,31.30
2023-02-12T22:16:52.938Z,28.30
2023-02-12T22:19:21.501Z,27.40
2023-02-12T22:21:53.653Z,27.90
2023-02-12T22:24:22.128Z,29.90
2023-02-12T22:26:50.511Z,29.90
2023-02-12T22:29:18.718Z,27.70
2023-02-12T22:31:47.747Z,26.70
2023-02-12T22:34:19.106Z,26.70
2023-02-12T22:36:48.340Z,25.40
2023-02-12T22:39:17.752Z,24.60
2023-02-12T22:41:49.386Z,26.00
2023-02-12T22:44:21.436Z,32.50
2023-02-12T22:46:50.365Z,31.50
2023-02-12T22:49:19.032Z,31.90
2023-02-12T22:51:47.659Z,30.70
2023-02-12T22:54:17.861Z,31.70
2023-02-12T22:56:50.308Z,33.00
2023-02-12T22:59:18.957Z,28.70
2023-02-12T23:01:47.201Z,33.50
2023-02-12T23:04:18.255Z,36.00
2023-02-12T23:06:47.211Z,35.50
2023-02-12T23:09:19.167Z,38.30
2023-02-12T23:11:51.717Z,40.20
2023-02-12T23:14:19.925Z,40.80
2023-02-12T23:16:48.687Z,39.10
2023-02-12T23:19:16.861Z,39.60
2023-02-12T23:21:45.123Z,40.00
2023-02-12T23:24:14.867Z,37.90
2023-02-12T23:26:43.516Z,35.60
2023-02-12T23:29:11.928Z,36.70
2023-02-12T23:31:40.196Z,35.50
2023-02-12T23:34:08.659Z,33.90
2023-02-12T23:36:36.992Z,37.10
2023-02-12T23:39:06.182Z,35.50
2023-02-12T23:41:35.332Z,35.20
2023-02-12T23:44:04.285Z,37.00
2023-02-12T23:46:32.368Z,34.30
2023-02-12T23:49:00.553Z,32.70
2023-02-12T23:51:29.270Z,34.90
2023-02-12T23:53:57.503Z,36.00
2023-02-12T23:56:26.241Z,34.20
2023-02-12T23:58:57.687Z,38.00
